sensor_id;sensor_type;location;lat;lon;timestamp;pressure;altitude;pressure_sealevel;temperature
64184;BMP280;50485;49.768;8.636;2022-09-21T00:01:37;101143.00;;;19.74
64184;BMP280;50485;49.768;8.636;2022-09-21T00:04:02;101141.44;;;19.73
64184;BMP280;50485;49.768;8.636;2022-09-21T00:06:29;101135.97;;;19.73
64184;BMP280;50485;49.768;8.636;2022-09-21T00:08:54;101137.56;;;19.74
64184;BMP280;50485;49.768;8.636;2022-09-21T00:11:20;101136.78;;;19.74
64184;BMP280;50485;49.768;8.636;2022-09-21T00:13:50;101137.13;;;19.72
64184;BMP280;50485;49.768;8.636;2022-09-21T00:16:15;101137.91;;;19.73
64184;BMP280;50485;49.768;8.636;2022-09-21T00:18:41;101145.28;;;19.72
64184;BMP280;50485;49.768;8.636;2022-09-21T00:21:10;101140.19;;;19.71
64184;BMP280;50485;49.768;8.636;2022-09-21T00:23:36;101136.78;;;19.74
64184;BMP280;50485;49.768;8.636;2022-09-21T00:26:03;101136.69;;;19.70
64184;BMP280;50485;49.768;8.636;2022-09-21T00:28:28;101139.03;;;19.72
64184;BMP280;50485;49.768;8.636;2022-09-21T00:30:53;101141.31;;;19.70
64184;BMP280;50485;49.768;8.636;2022-09-21T00:33:18;101136.69;;;19.70
64184;BMP280;50485;49.768;8.636;2022-09-21T00:35:43;101140.53;;;19.69
64184;BMP280;50485;49.768;8.636;2022-09-21T00:38:08;101136.69;;;19.70
64184;BMP280;50485;49.768;8.636;2022-09-21T00:40:34;101135.09;;;19.69
64184;BMP280;50485;49.768;8.636;2022-09-21T00:43:12;101138.94;;;19.68
64184;BMP280;50485;49.768;8.636;2022-09-21T00:45:38;101136.59;;;19.67
64184;BMP280;50485;49.768;8.636;2022-09-21T00:48:03;101140.84;;;19.68
64184;BMP280;50485;49.768;8.636;2022-09-21T00:50:28;101140.06;;;19.67
64184;BMP280;50485;49.768;8.636;2022-09-21T00:52:54;101142.34;;;19.65
64184;BMP280;50485;49.768;8.636;2022-09-21T00:55:22;101143.56;;;19.68
64184;BMP280;50485;49.768;8.636;2022-09-21T00:57:50;101136.22;;;19.68
64184;BMP280;50485;49.768;8.636;2022-09-21T01:00:16;101135.00;;;19.66
64184;BMP280;50485;49.768;8.636;2022-09-21T01:02:42;101134.19;;;19.65
64184;BMP280;50485;49.768;8.636;2022-09-21T01:05:07;101142.03;;;19.67
64184;BMP280;50485;49.768;8.636;2022-09-21T01:07:34;101151.63;;;19.64
64184;BMP280;50485;49.768;8.636;2022-09-21T01:10:02;101151.97;;;19.63
64184;BMP280;50485;49.768;8.636;2022-09-21T01:17:43;101150.06;;;19.63
64184;BMP280;50485;49.768;8.636;2022-09-21T01:20:16;101153.56;;;19.64
64184;BMP280;50485;49.768;8.636;2022-09-21T01:30:38;101146.91;;;19.61
64184;BMP280;50485;49.768;8.636;2022-09-21T01:33:15;101153.47;;;19.60
64184;BMP280;50485;49.768;8.636;2022-09-21T01:35:42;101153.47;;;19.60
64184;BMP280;50485;49.768;8.636;2022-09-21T01:38:32;101152.69;;;19.60
64184;BMP280;50485;49.768;8.636;2022-09-21T01:40:57;101153.47;;;19.60
64184;BMP280;50485;49.768;8.636;2022-09-21T01:43:26;101151.53;;;19.61
64184;BMP280;50485;49.768;8.636;2022-09-21T01:45:52;101153.81;;;19.59
64184;BMP280;50485;49.768;8.636;2022-09-21T01:48:19;101161.16;;;19.58
64184;BMP280;50485;49.768;8.636;2022-09-21T01:50:47;101158.13;;;19.60
64184;BMP280;50485;49.768;8.636;2022-09-21T01:53:21;101154.59;;;19.59
64184;BMP280;50485;49.768;8.636;2022-09-21T01:55:49;101151.44;;;19.57
64184;BMP280;50485;49.768;8.636;2022-09-21T01:58:21;101158.13;;;19.60
64184;BMP280;50485;49.768;8.636;2022-09-21T02:00:48;101162.31;;;19.57
64184;BMP280;50485;49.768;8.636;2022-09-21T02:03:20;101153.00;;;19.58
64184;BMP280;50485;49.768;8.636;2022-09-21T02:05:46;101144.44;;;19.56
64184;BMP280;50485;49.768;8.636;2022-09-21T02:08:11;101151.44;;;19.57
64184;BMP280;50485;49.768;8.636;2022-09-21T02:10:58;101152.59;;;19.56
64184;BMP280;50485;49.768;8.636;2022-09-21T02:13:22;101149.38;;;19.54
64184;BMP280;50485;49.768;8.636;2022-09-21T02:20:56;101152.59;;;19.56
64184;BMP280;50485;49.768;8.636;2022-09-21T02:23:27;101152.59;;;19.56
64184;BMP280;50485;49.768;8.636;2022-09-21T02:31:07;101145.47;;;19.52
64184;BMP280;50485;49.768;8.636;2022-09-21T02:33:40;101150.09;;;19.51
64184;BMP280;50485;49.768;8.636;2022-09-21T02:36:10;101145.13;;;19.53
64184;BMP280;50485;49.768;8.636;2022-09-21T02:38:44;101150.09;;;19.51
64184;BMP280;50485;49.768;8.636;2022-09-21T02:41:29;101141.94;;;19.51
64184;BMP280;50485;49.768;8.636;2022-09-21T02:44:03;101146.66;;;19.54
64184;BMP280;50485;49.768;8.636;2022-09-21T02:46:33;101144.63;;;19.51
64184;BMP280;50485;49.768;8.636;2022-09-21T02:49:06;101145.00;;;19.50
64184;BMP280;50485;49.768;8.636;2022-09-21T02:51:56;101146.16;;;19.49
64184;BMP280;50485;49.768;8.636;2022-09-21T02:54:21;101146.16;;;19.49
64184;BMP280;50485;49.768;8.636;2022-09-21T02:56:48;101148.09;;;19.48
64184;BMP280;50485;49.768;8.636;2022-09-21T02:59:15;101143.06;;;19.50
64184;BMP280;50485;49.768;8.636;2022-09-21T03:01:40;101146.94;;;19.49
64184;BMP280;50485;49.768;8.636;2022-09-21T03:04:06;101143.44;;;19.49
64184;BMP280;50485;49.768;8.636;2022-09-21T03:06:31;101135.59;;;19.47
64184;BMP280;50485;49.768;8.636;2022-09-21T03:08:57;101145.38;;;19.48
64184;BMP280;50485;49.768;8.636;2022-09-21T03:11:22;101139.13;;;19.48
64184;BMP280;50485;49.768;8.636;2022-09-21T03:13:48;101142.19;;;19.46
64184;BMP280;50485;49.768;8.636;2022-09-21T03:16:13;101151.13;;;19.47
64184;BMP280;50485;49.768;8.636;2022-09-21T03:18:38;101151.13;;;19.47
64184;BMP280;50485;49.768;8.636;2022-09-21T03:21:04;101153.75;;;19.43
64184;BMP280;50485;49.768;8.636;2022-09-21T03:23:29;101154.19;;;19.45
64184;BMP280;50485;49.768;8.636;2022-09-21T03:25:55;101144.88;;;19.46
64184;BMP280;50485;49.768;8.636;2022-09-21T03:28:20;101152.94;;;19.42
64184;BMP280;50485;49.768;8.636;2022-09-21T03:30:48;101158.03;;;19.44
64184;BMP280;50485;49.768;8.636;2022-09-21T03:33:14;101155.31;;;19.44
64184;BMP280;50485;49.768;8.636;2022-09-21T03:35:40;101152.25;;;19.45
64184;BMP280;50485;49.768;8.636;2022-09-21T03:38:06;101157.25;;;19.43
64184;BMP280;50485;49.768;8.636;2022-09-21T03:40:32;101159.88;;;19.40
64184;BMP280;50485;49.768;8.636;2022-09-21T03:42:57;101164.63;;;19.43
64184;BMP280;50485;49.768;8.636;2022-09-21T03:45:22;101161.41;;;19.41
64184;BMP280;50485;49.768;8.636;2022-09-21T03:47:48;101163.34;;;19.40
64184;BMP280;50485;49.768;8.636;2022-09-21T03:50:14;101162.59;;;19.40
64184;BMP280;50485;49.768;8.636;2022-09-21T03:52:39;101163.72;;;19.39
64184;BMP280;50485;49.768;8.636;2022-09-21T03:55:05;101163.03;;;19.42
64184;BMP280;50485;49.768;8.636;2022-09-21T03:57:31;101166.84;;;19.41
64184;BMP280;50485;49.768;8.636;2022-09-21T03:59:56;101165.31;;;19.40
64184;BMP280;50485;49.768;8.636;2022-09-21T04:02:21;101169.16;;;19.39
64184;BMP280;50485;49.768;8.636;2022-09-21T04:04:46;101163.72;;;19.39
64184;BMP280;50485;49.768;8.636;2022-09-21T04:07:12;101164.63;;;19.43
64184;BMP280;50485;49.768;8.636;2022-09-21T04:09:38;101166.75;;;19.37
64184;BMP280;50485;49.768;8.636;2022-09-21T04:12:03;101166.06;;;19.40
64184;BMP280;50485;49.768;8.636;2022-09-21T04:14:28;101175.16;;;19.32
64184;BMP280;50485;49.768;8.636;2022-09-21T04:16:53;101172.53;;;19.36
64184;BMP280;50485;49.768;8.636;2022-09-21T04:19:19;101178.44;;;19.38
64184;BMP280;50485;49.768;8.636;2022-09-21T04:21:45;101177.97;;;19.36
64184;BMP280;50485;49.768;8.636;2022-09-21T04:24:10;101176.84;;;19.37
64184;BMP280;50485;49.768;8.636;2022-09-21T04:26:35;101178.44;;;19.38
64184;BMP280;50485;49.768;8.636;2022-09-21T04:29:01;101185.00;;;19.37
64184;BMP280;50485;49.768;8.636;2022-09-21T04:31:27;101174.50;;;19.35
64184;BMP280;50485;49.768;8.636;2022-09-21T04:33:53;101176.41;;;19.35
64184;BMP280;50485;49.768;8.636;2022-09-21T04:36:19;101179.25;;;19.38
64184;BMP280;50485;49.768;8.636;2022-09-21T04:38:45;101174.00;;;19.33
64184;BMP280;50485;49.768;8.636;2022-09-21T04:41:10;101173.69;;;19.35
64184;BMP280;50485;49.768;8.636;2022-09-21T04:43:36;101180.25;;;19.34
64184;BMP280;50485;49.768;8.636;2022-09-21T04:46:11;101177.53;;;19.34
64184;BMP280;50485;49.768;8.636;2022-09-21T04:48:36;101185.69;;;19.34
64184;BMP280;50485;49.768;8.636;2022-09-21T04:51:02;101181.84;;;19.35
64184;BMP280;50485;49.768;8.636;2022-09-21T04:53:28;101184.88;;;19.33
64184;BMP280;50485;49.768;8.636;2022-09-21T04:55:53;101186.03;;;19.32
64184;BMP280;50485;49.768;8.636;2022-09-21T04:58:19;101184.09;;;19.33
64184;BMP280;50485;49.768;8.636;2022-09-21T05:00:47;101186.81;;;19.33
64184;BMP280;50485;49.768;8.636;2022-09-21T05:03:13;101182.50;;;19.32
64184;BMP280;50485;49.768;8.636;2022-09-21T05:05:38;101192.25;;;19.33
64184;BMP280;50485;49.768;8.636;2022-09-21T05:08:03;101198.38;;;19.30
64184;BMP280;50485;49.768;8.636;2022-09-21T05:10:28;101196.09;;;19.32
64184;BMP280;50485;49.768;8.636;2022-09-21T05:12:54;101199.16;;;19.30
64184;BMP280;50485;49.768;8.636;2022-09-21T05:15:19;101206.97;;;19.32
64184;BMP280;50485;49.768;8.636;2022-09-21T05:17:45;101202.81;;;19.34
64184;BMP280;50485;49.768;8.636;2022-09-21T05:20:11;101206.97;;;19.32
64184;BMP280;50485;49.768;8.636;2022-09-21T05:22:36;101208.94;;;19.31
64184;BMP280;50485;49.768;8.636;2022-09-21T05:25:01;101214.00;;;19.33
64184;BMP280;50485;49.768;8.636;2022-09-21T05:27:26;101217.50;;;19.33
64184;BMP280;50485;49.768;8.636;2022-09-21T05:29:52;101231.88;;;19.34
64184;BMP280;50485;49.768;8.636;2022-09-21T05:32:24;101222.94;;;19.33
64184;BMP280;50485;49.768;8.636;2022-09-21T05:37:41;101228.84;;;19.35
64184;BMP280;50485;49.768;8.636;2022-09-21T05:40:09;101232.72;;;19.34
64184;BMP280;50485;49.768;8.636;2022-09-21T05:42:35;101230.00;;;19.34
64184;BMP280;50485;49.768;8.636;2022-09-21T05:45:00;101232.81;;;19.38
64184;BMP280;50485;49.768;8.636;2022-09-21T05:52:56;101236.97;;;20.00
64184;BMP280;50485;49.768;8.636;2022-09-21T06:00:22;101244.34;;;20.71
64184;BMP280;50485;49.768;8.636;2022-09-21T06:05:41;101245.25;;;21.07
64184;BMP280;50485;49.768;8.636;2022-09-21T06:08:07;101243.56;;;21.18
64184;BMP280;50485;49.768;8.636;2022-09-21T06:10:33;101251.66;;;21.30
64184;BMP280;50485;49.768;8.636;2022-09-21T06:12:58;101254.53;;;21.37
64184;BMP280;50485;49.768;8.636;2022-09-21T06:15:23;101246.13;;;21.46
64184;BMP280;50485;49.768;8.636;2022-09-21T06:17:48;101245.88;;;21.51
64184;BMP280;50485;49.768;8.636;2022-09-21T06:20:14;101246.81;;;21.58
64184;BMP280;50485;49.768;8.636;2022-09-21T06:22:39;101257.47;;;21.64
64184;BMP280;50485;49.768;8.636;2022-09-21T06:25:04;101251.28;;;21.67
64184;BMP280;50485;49.768;8.636;2022-09-21T06:27:30;101256.91;;;21.74
64184;BMP280;50485;49.768;8.636;2022-09-21T06:29:55;101257.78;;;21.78
64184;BMP280;50485;49.768;8.636;2022-09-21T06:32:20;101255.19;;;21.85
64184;BMP280;50485;49.768;8.636;2022-09-21T06:34:45;101264.69;;;21.91
64184;BMP280;50485;49.768;8.636;2022-09-21T06:37:10;101253.00;;;21.94
64184;BMP280;50485;49.768;8.636;2022-09-21T06:39:35;101257.81;;;22.01
64184;BMP280;50485;49.768;8.636;2022-09-21T06:42:01;101267.69;;;22.05
64184;BMP280;50485;49.768;8.636;2022-09-21T06:44:26;101256.53;;;22.14
64184;BMP280;50485;49.768;8.636;2022-09-21T06:46:53;101266.03;;;22.20
64184;BMP280;50485;49.768;8.636;2022-09-21T06:49:18;101270.38;;;22.25
64184;BMP280;50485;49.768;8.636;2022-09-21T06:51:44;101264.66;;;22.30
64184;BMP280;50485;49.768;8.636;2022-09-21T06:54:11;101266.78;;;22.40
64184;BMP280;50485;49.768;8.636;2022-09-21T06:56:36;101266.47;;;22.45
64184;BMP280;50485;49.768;8.636;2022-09-21T06:59:01;101272.84;;;22.52
64184;BMP280;50485;49.768;8.636;2022-09-21T07:01:26;101268.75;;;22.62
64184;BMP280;50485;49.768;8.636;2022-09-21T07:03:52;101270.03;;;22.68
64184;BMP280;50485;49.768;8.636;2022-09-21T07:06:18;101277.59;;;22.78
64184;BMP280;50485;49.768;8.636;2022-09-21T07:08:44;101276.16;;;22.84
64184;BMP280;50485;49.768;8.636;2022-09-21T07:11:10;101282.88;;;22.91
64184;BMP280;50485;49.768;8.636;2022-09-21T07:13:35;101274.44;;;22.99
64184;BMP280;50485;49.768;8.636;2022-09-21T07:16:04;101289.03;;;23.07
64184;BMP280;50485;49.768;8.636;2022-09-21T07:18:31;101280.13;;;23.13
64184;BMP280;50485;49.768;8.636;2022-09-21T07:20:57;101279.44;;;23.20
64184;BMP280;50485;49.768;8.636;2022-09-21T07:23:23;101282.69;;;23.29
64184;BMP280;50485;49.768;8.636;2022-09-21T07:25:48;101281.22;;;23.35
64184;BMP280;50485;49.768;8.636;2022-09-21T07:28:14;101275.06;;;23.42
64184;BMP280;50485;49.768;8.636;2022-09-21T07:30:39;101277.97;;;23.53
64184;BMP280;50485;49.768;8.636;2022-09-21T07:33:05;101276.06;;;23.57
64184;BMP280;50485;49.768;8.636;2022-09-21T07:35:30;101277.34;;;23.66
64184;BMP280;50485;49.768;8.636;2022-09-21T07:38:03;101278.22;;;23.74
64184;BMP280;50485;49.768;8.636;2022-09-21T07:40:28;101274.44;;;23.82
64184;BMP280;50485;49.768;8.636;2022-09-21T07:42:57;101278.81;;;23.90
64184;BMP280;50485;49.768;8.636;2022-09-21T07:45:22;101281.69;;;24.01
64184;BMP280;50485;49.768;8.636;2022-09-21T07:47:48;101278.28;;;24.11
64184;BMP280;50485;49.768;8.636;2022-09-21T07:50:13;101281.88;;;24.19
64184;BMP280;50485;49.768;8.636;2022-09-21T07:52:38;101277.66;;;24.25
64184;BMP280;50485;49.768;8.636;2022-09-21T07:55:04;101286.34;;;24.34
64184;BMP280;50485;49.768;8.636;2022-09-21T07:57:29;101288.38;;;24.44
64184;BMP280;50485;49.768;8.636;2022-09-21T08:00:13;101278.66;;;24.50
64184;BMP280;50485;49.768;8.636;2022-09-21T08:02:39;101284.63;;;24.59
64184;BMP280;50485;49.768;8.636;2022-09-21T08:05:04;101268.22;;;24.63
64184;BMP280;50485;49.768;8.636;2022-09-21T08:07:29;101272.19;;;24.72
64184;BMP280;50485;49.768;8.636;2022-09-21T08:09:55;101276.59;;;24.84
64184;BMP280;50485;49.768;8.636;2022-09-21T08:12:20;101277.41;;;24.88
64184;BMP280;50485;49.768;8.636;2022-09-21T08:14:45;101280.22;;;24.95
64184;BMP280;50485;49.768;8.636;2022-09-21T08:17:11;101276.38;;;25.07
64184;BMP280;50485;49.768;8.636;2022-09-21T08:19:37;101265.41;;;25.11
64184;BMP280;50485;49.768;8.636;2022-09-21T08:22:02;101275.28;;;25.22
64184;BMP280;50485;49.768;8.636;2022-09-21T08:24:27;101280.44;;;25.31
64184;BMP280;50485;49.768;8.636;2022-09-21T08:26:53;101283.22;;;25.42
64184;BMP280;50485;49.768;8.636;2022-09-21T08:29:19;101281.69;;;25.48
64184;BMP280;50485;49.768;8.636;2022-09-21T08:31:45;101283.31;;;25.59
64184;BMP280;50485;49.768;8.636;2022-09-21T08:34:10;101283.69;;;25.65
64184;BMP280;50485;49.768;8.636;2022-09-21T08:36:36;101276.72;;;25.78
64184;BMP280;50485;49.768;8.636;2022-09-21T08:39:01;101281.44;;;25.81
64184;BMP280;50485;49.768;8.636;2022-09-21T08:41:40;101277.16;;;25.94
64184;BMP280;50485;49.768;8.636;2022-09-21T08:44:16;101273.66;;;26.04
64184;BMP280;50485;49.768;8.636;2022-09-21T08:46:42;101279.94;;;26.16
64184;BMP280;50485;49.768;8.636;2022-09-21T08:51:47;101265.84;;;26.46
64184;BMP280;50485;49.768;8.636;2022-09-21T08:54:56;101266.63;;;26.57
64184;BMP280;50485;49.768;8.636;2022-09-21T08:57:01;101271.34;;;26.70
64184;BMP280;50485;49.768;8.636;2022-09-21T08:59:27;101266.19;;;26.76
64184;BMP280;50485;49.768;8.636;2022-09-21T09:01:54;101268.16;;;26.90
64184;BMP280;50485;49.768;8.636;2022-09-21T09:07:08;101259.41;;;27.16
64184;BMP280;50485;49.768;8.636;2022-09-21T09:12:29;101263.28;;;27.40
64184;BMP280;50485;49.768;8.636;2022-09-21T09:15:16;101257.75;;;27.44
64184;BMP280;50485;49.768;8.636;2022-09-21T09:20:28;101261.50;;;27.82
64184;BMP280;50485;49.768;8.636;2022-09-21T09:23:14;101259.78;;;28.02
64184;BMP280;50485;49.768;8.636;2022-09-21T09:25:41;101256.97;;;28.09
64184;BMP280;50485;49.768;8.636;2022-09-21T09:28:28;101263.66;;;28.12
64184;BMP280;50485;49.768;8.636;2022-09-21T09:31:36;101255.75;;;28.10
64184;BMP280;50485;49.768;8.636;2022-09-21T09:36:08;101256.94;;;28.13
64184;BMP280;50485;49.768;8.636;2022-09-21T09:38:36;101245.84;;;28.20
64184;BMP280;50485;49.768;8.636;2022-09-21T09:51:37;101240.28;;;28.27
64184;BMP280;50485;49.768;8.636;2022-09-21T09:54:04;101237.06;;;27.80
64184;BMP280;50485;49.768;8.636;2022-09-21T09:56:30;101232.75;;;25.67
64184;BMP280;50485;49.768;8.636;2022-09-21T09:58:56;101226.16;;;24.96
64184;BMP280;50485;49.768;8.636;2022-09-21T10:01:34;101231.81;;;24.66
64184;BMP280;50485;49.768;8.636;2022-09-21T10:04:03;101221.47;;;24.45
64184;BMP280;50485;49.768;8.636;2022-09-21T10:06:31;101230.75;;;24.33
64184;BMP280;50485;49.768;8.636;2022-09-21T10:08:57;101239.69;;;24.27
64184;BMP280;50485;49.768;8.636;2022-09-21T10:11:22;101231.38;;;24.16
64184;BMP280;50485;49.768;8.636;2022-09-21T10:13:59;101230.16;;;24.10
64184;BMP280;50485;49.768;8.636;2022-09-21T10:16:30;101230.84;;;24.00
64184;BMP280;50485;49.768;8.636;2022-09-21T10:18:56;101220.63;;;23.97
64184;BMP280;50485;49.768;8.636;2022-09-21T10:21:26;101216.66;;;23.94
64184;BMP280;50485;49.768;8.636;2022-09-21T10:23:52;101223.56;;;23.81
64184;BMP280;50485;49.768;8.636;2022-09-21T10:26:20;101216.53;;;23.80
64184;BMP280;50485;49.768;8.636;2022-09-21T10:28:58;101225.81;;;23.72
64184;BMP280;50485;49.768;8.636;2022-09-21T10:31:25;101221.09;;;23.69
64184;BMP280;50485;49.768;8.636;2022-09-21T10:36:26;101219.00;;;23.59
64184;BMP280;50485;49.768;8.636;2022-09-21T10:38:52;101216.19;;;23.52
64184;BMP280;50485;49.768;8.636;2022-09-21T10:41:17;101214.63;;;23.51
64184;BMP280;50485;49.768;8.636;2022-09-21T10:43:42;101220.84;;;23.48
64184;BMP280;50485;49.768;8.636;2022-09-21T10:46:08;101209.81;;;23.40
64184;BMP280;50485;49.768;8.636;2022-09-21T10:48:33;101219.09;;;23.36
64184;BMP280;50485;49.768;8.636;2022-09-21T10:50:59;101205.69;;;23.27
64184;BMP280;50485;49.768;8.636;2022-09-21T10:55:56;101201.72;;;23.21
64184;BMP280;50485;49.768;8.636;2022-09-21T10:58:22;101206.34;;;23.17
64184;BMP280;50485;49.768;8.636;2022-09-21T11:00:48;101202.41;;;23.14
64184;BMP280;50485;49.768;8.636;2022-09-21T11:06:07;101205.41;;;23.06
64184;BMP280;50485;49.768;8.636;2022-09-21T11:13:40;101200.97;;;22.98
64184;BMP280;50485;49.768;8.636;2022-09-21T11:16:15;101198.19;;;22.94
64184;BMP280;50485;49.768;8.636;2022-09-21T11:19:02;101199.75;;;22.92
64184;BMP280;50485;49.768;8.636;2022-09-21T11:27:21;101199.63;;;22.84
64184;BMP280;50485;49.768;8.636;2022-09-21T11:32:17;101195.50;;;22.71
64184;BMP280;50485;49.768;8.636;2022-09-21T11:45:37;101188.34;;;22.63
64184;BMP280;50485;49.768;8.636;2022-09-21T11:50:27;101190.97;;;22.56
64184;BMP280;50485;49.768;8.636;2022-09-21T11:53:17;101178.03;;;22.53
64184;BMP280;50485;49.768;8.636;2022-09-21T11:56:00;101190.97;;;22.56
64184;BMP280;50485;49.768;8.636;2022-09-21T11:58:38;101181.06;;;22.48
64184;BMP280;50485;49.768;8.636;2022-09-21T12:06:42;101171.25;;;22.43
64184;BMP280;50485;49.768;8.636;2022-09-21T12:09:22;101180.97;;;22.41
64184;BMP280;50485;49.768;8.636;2022-09-21T12:12:09;101176.97;;;22.35
64184;BMP280;50485;49.768;8.636;2022-09-21T12:17:28;101176.97;;;22.35
64184;BMP280;50485;49.768;8.636;2022-09-21T12:19:58;101167.53;;;22.32
64184;BMP280;50485;49.768;8.636;2022-09-21T12:24:53;101165.25;;;22.34
64184;BMP280;50485;49.768;8.636;2022-09-21T12:27:24;101158.56;;;22.32
64184;BMP280;50485;49.768;8.636;2022-09-21T12:29:51;101159.34;;;22.32
64184;BMP280;50485;49.768;8.636;2022-09-21T12:32:23;101158.16;;;22.30
64184;BMP280;50485;49.768;8.636;2022-09-21T12:35:02;101155.41;;;22.30
64184;BMP280;50485;49.768;8.636;2022-09-21T12:40:05;101151.09;;;22.29
64184;BMP280;50485;49.768;8.636;2022-09-21T12:42:39;101147.50;;;22.25
64184;BMP280;50485;49.768;8.636;2022-09-21T12:45:11;101145.56;;;22.25
64184;BMP280;50485;49.768;8.636;2022-09-21T12:47:51;101144.38;;;22.23
64184;BMP280;50485;49.768;8.636;2022-09-21T12:50:22;101134.66;;;22.25
64184;BMP280;50485;49.768;8.636;2022-09-21T12:52:50;101129.97;;;22.26
64184;BMP280;50485;49.768;8.636;2022-09-21T12:55:20;101134.59;;;22.21
64184;BMP280;50485;49.768;8.636;2022-09-21T12:58:05;101136.94;;;22.19
64184;BMP280;50485;49.768;8.636;2022-09-21T13:01:17;101140.00;;;22.18
64184;BMP280;50485;49.768;8.636;2022-09-21T13:03:29;101143.09;;;22.16
64184;BMP280;50485;49.768;8.636;2022-09-21T13:08:54;101130.22;;;22.17
64184;BMP280;50485;49.768;8.636;2022-09-21T13:11:20;101132.09;;;22.13
64184;BMP280;50485;49.768;8.636;2022-09-21T13:13:47;101133.69;;;22.14
64184;BMP280;50485;49.768;8.636;2022-09-21T13:18:55;101136.03;;;22.12
64184;BMP280;50485;49.768;8.636;2022-09-21T13:21:25;101125.03;;;22.08
64184;BMP280;50485;49.768;8.636;2022-09-21T13:23:58;101123.44;;;22.07
64184;BMP280;50485;49.768;8.636;2022-09-21T13:26:50;101123.84;;;22.09
64184;BMP280;50485;49.768;8.636;2022-09-21T13:31:54;101114.81;;;22.05
64184;BMP280;50485;49.768;8.636;2022-09-21T13:37:32;101115.19;;;22.04
64184;BMP280;50485;49.768;8.636;2022-09-21T13:39:32;101115.19;;;22.04
64184;BMP280;50485;49.768;8.636;2022-09-21T13:41:57;101112.41;;;22.00
64184;BMP280;50485;49.768;8.636;2022-09-21T13:44:39;101107.38;;;22.02
64184;BMP280;50485;49.768;8.636;2022-09-21T13:47:05;101117.13;;;22.03
64184;BMP280;50485;49.768;8.636;2022-09-21T13:49:36;101110.38;;;21.97
64184;BMP280;50485;49.768;8.636;2022-09-21T13:52:07;101113.81;;;21.94
64184;BMP280;50485;49.768;8.636;2022-09-21T13:57:15;101104.50;;;21.95
64184;BMP280;50485;49.768;8.636;2022-09-21T13:59:42;101102.84;;;21.90
64184;BMP280;50485;49.768;8.636;2022-09-21T14:02:18;101095.09;;;21.93
64184;BMP280;50485;49.768;8.636;2022-09-21T14:04:46;101102.84;;;21.90
64184;BMP280;50485;49.768;8.636;2022-09-21T14:07:12;101100.47;;;21.89
64184;BMP280;50485;49.768;8.636;2022-09-21T14:09:40;101095.69;;;21.82
64184;BMP280;50485;49.768;8.636;2022-09-21T14:12:08;101092.19;;;21.82
64184;BMP280;50485;49.768;8.636;2022-09-21T14:14:35;101093.41;;;21.84
64184;BMP280;50485;49.768;8.636;2022-09-21T14:24:47;101081.63;;;21.80
64184;BMP280;50485;49.768;8.636;2022-09-21T14:32:14;101086.72;;;21.82
64184;BMP280;50485;49.768;8.636;2022-09-21T14:34:40;101085.44;;;21.76
64184;BMP280;50485;49.768;8.636;2022-09-21T14:37:11;101082.72;;;21.76
64184;BMP280;50485;49.768;8.636;2022-09-21T14:39:40;101082.28;;;21.74
64184;BMP280;50485;49.768;8.636;2022-09-21T14:42:10;101074.47;;;21.72
64184;BMP280;50485;49.768;8.636;2022-09-21T14:44:36;101082.72;;;21.76
64184;BMP280;50485;49.768;8.636;2022-09-21T14:47:13;101074.47;;;21.72
64184;BMP280;50485;49.768;8.636;2022-09-21T14:49:45;101064.25;;;21.69
64184;BMP280;50485;49.768;8.636;2022-09-21T14:54:58;101070.91;;;21.68
64184;BMP280;50485;49.768;8.636;2022-09-21T15:00:03;101063.41;;;21.65
64184;BMP280;50485;49.768;8.636;2022-09-21T15:02:32;101066.84;;;21.62
64184;BMP280;50485;49.768;8.636;2022-09-21T15:05:02;101070.38;;;21.63
64184;BMP280;50485;49.768;8.636;2022-09-21T15:07:45;101062.56;;;21.61
64184;BMP280;50485;49.768;8.636;2022-09-21T15:16:06;101052.75;;;21.56
64184;BMP280;50485;49.768;8.636;2022-09-21T15:18:38;101062.50;;;21.57
64184;BMP280;50485;49.768;8.636;2022-09-21T15:21:04;101056.97;;;21.54
64184;BMP280;50485;49.768;8.636;2022-09-21T15:23:38;101054.25;;;21.54
64184;BMP280;50485;49.768;8.636;2022-09-21T15:26:14;101045.28;;;21.53
64184;BMP280;50485;49.768;8.636;2022-09-21T15:28:46;101049.53;;;21.51
64184;BMP280;50485;49.768;8.636;2022-09-21T15:31:14;101053.03;;;21.51
64184;BMP280;50485;49.768;8.636;2022-09-21T15:33:40;101044.44;;;21.49
64184;BMP280;50485;49.768;8.636;2022-09-21T15:36:07;101052.19;;;21.47
64184;BMP280;50485;49.768;8.636;2022-09-21T15:38:33;101045.47;;;21.45
64184;BMP280;50485;49.768;8.636;2022-09-21T15:41:00;101047.00;;;21.42
64184;BMP280;50485;49.768;8.636;2022-09-21T15:43:26;101042.69;;;21.41
64184;BMP280;50485;49.768;8.636;2022-09-21T15:45:59;101041.53;;;21.42
64184;BMP280;50485;49.768;8.636;2022-09-21T15:48:25;101041.16;;;21.40
64184;BMP280;50485;49.768;8.636;2022-09-21T15:50:52;101043.88;;;21.40
64184;BMP280;50485;49.768;8.636;2022-09-21T15:53:21;101029.06;;;21.41
64184;BMP280;50485;49.768;8.636;2022-09-21T15:55:47;101037.25;;;21.41
64184;BMP280;50485;49.768;8.636;2022-09-21T15:58:23;101040.63;;;21.35
64184;BMP280;50485;49.768;8.636;2022-09-21T16:00:49;101039.50;;;21.36
64184;BMP280;50485;49.768;8.636;2022-09-21T16:03:19;101037.91;;;21.35
64184;BMP280;50485;49.768;8.636;2022-09-21T16:05:47;101044.88;;;21.32
64184;BMP280;50485;49.768;8.636;2022-09-21T16:08:17;101045.66;;;21.33
64184;BMP280;50485;49.768;8.636;2022-09-21T16:10:43;101048.75;;;21.31
64184;BMP280;50485;49.768;8.636;2022-09-21T16:13:26;101044.44;;;21.30
64184;BMP280;50485;49.768;8.636;2022-09-21T16:16:14;101046.00;;;21.31
64184;BMP280;50485;49.768;8.636;2022-09-21T16:18:50;101040.50;;;21.27
64184;BMP280;50485;49.768;8.636;2022-09-21T16:23:47;101043.16;;;21.24
64184;BMP280;50485;49.768;8.636;2022-09-21T16:26:26;101038.84;;;21.23
64184;BMP280;50485;49.768;8.636;2022-09-21T16:28:56;101044.31;;;21.23
64184;BMP280;50485;49.768;8.636;2022-09-21T16:33:56;101050.09;;;21.21
64184;BMP280;50485;49.768;8.636;2022-09-21T16:36:32;101057.47;;;21.21
64184;BMP280;50485;49.768;8.636;2022-09-21T16:38:58;101053.19;;;21.20